sensor_id;sensor_type;location;lat;lon;timestamp;pressure;altitude;pressure_sealevel;temperature;humidity
12775;BME280;6451;42.630;23.382;2023-04-28T00:00:07;94580.72;;;11.97;46.28
12775;BME280;6451;42.630;23.382;2023-04-28T00:02:34;94580.09;;;11.60;46.62
12775;BME280;6451;42.630;23.382;2023-04-28T00:05:01;94521.72;;;11.41;46.57
12775;BME280;6451;42.630;23.382;2023-04-28T00:07:28;94420.72;;;10.40;46.38
12775;BME280;6451;42.630;23.382;2023-04-28T00:09:55;94585.19;;;11.61;46.68
12775;BME280;6451;42.630;23.382;2023-04-28T00:12:22;94575.47;;;11.48;46.75
12775;BME280;6451;42.630;23.382;2023-04-28T00:14:49;94588.88;;;11.41;47.25
12775;BME280;6451;42.630;23.382;2023-04-28T00:17:18;94587.56;;;11.23;47.44
12775;BME280;6451;42.630;23.382;2023-04-28T00:19:45;94586.56;;;11.55;46.74
12775;BME280;6451;42.630;23.382;2023-04-28T00:22:12;94593.25;;;11.18;47.30
12775;BME280;6451;42.630;23.382;2023-04-28T00:24:39;94573.09;;;11.19;47.46
12775;BME280;6451;42.630;23.382;2023-04-28T00:27:06;94594.66;;;11.67;47.01
12775;BME280;6451;42.630;23.382;2023-04-28T00:29:33;94588.44;;;11.27;47.30
12775;BME280;6451;42.630;23.382;2023-04-28T00:32:00;94570.06;;;11.20;47.16
12775;BME280;6451;42.630;23.382;2023-04-28T00:34:31;94543.72;;;10.96;47.18
12775;BME280;6451;42.630;23.382;2023-04-28T00:36:58;94589.16;;;11.24;47.62
12775;BME280;6451;42.630;23.382;2023-04-28T00:39:25;94596.50;;;11.35;47.71
12775;BME280;6451;42.630;23.382;2023-04-28T00:41:52;94600.47;;;11.26;47.94
12775;BME280;6451;42.630;23.382;2023-04-28T00:44:19;94597.69;;;11.50;47.56
12775;BME280;6451;42.630;23.382;2023-04-28T00:46:46;94598.66;;;11.30;47.73
12775;BME280;6451;42.630;23.382;2023-04-28T00:49:14;94586.06;;;10.85;48.46
12775;BME280;6451;42.630;23.382;2023-04-28T00:51:43;94551.50;;;11.10;47.40
12775;BME280;6451;42.630;23.382;2023-04-28T00:54:12;94517.91;;;10.62;47.74
12775;BME280;6451;42.630;23.382;2023-04-28T00:56:39;94506.31;;;10.37;48.13
12775;BME280;6451;42.630;23.382;2023-04-28T00:59:06;94584.13;;;10.98;48.25
12775;BME280;6451;42.630;23.382;2023-04-28T01:01:33;94550.25;;;10.67;48.23
12775;BME280;6451;42.630;23.382;2023-04-28T01:04:01;94607.09;;;11.00;48.52
12775;BME280;6451;42.630;23.382;2023-04-28T01:06:28;94598.84;;;10.97;48.38
12775;BME280;6451;42.630;23.382;2023-04-28T01:08:57;94530.09;;;10.19;48.92
12775;BME280;6451;42.630;23.382;2023-04-28T01:11:25;94598.97;;;10.64;48.96
12775;BME280;6451;42.630;23.382;2023-04-28T01:13:52;94617.75;;;10.69;49.30
12775;BME280;6451;42.630;23.382;2023-04-28T01:16:19;94614.34;;;10.60;49.02
12775;BME280;6451;42.630;23.382;2023-04-28T01:18:47;94612.19;;;10.65;48.85
12775;BME280;6451;42.630;23.382;2023-04-28T01:21:14;94571.50;;;10.53;48.53
12775;BME280;6451;42.630;23.382;2023-04-28T01:23:45;94605.41;;;10.47;48.83
12775;BME280;6451;42.630;23.382;2023-04-28T01:26:12;94613.66;;;10.63;48.72
12775;BME280;6451;42.630;23.382;2023-04-28T01:28:39;94612.19;;;10.65;48.91
12775;BME280;6451;42.630;23.382;2023-04-28T01:31:06;94613.84;;;10.21;49.35
12775;BME280;6451;42.630;23.382;2023-04-28T01:33:33;94580.97;;;9.77;49.60
12775;BME280;6451;42.630;23.382;2023-04-28T01:36:01;94617.31;;;10.09;49.46
12775;BME280;6451;42.630;23.382;2023-04-28T01:38:28;94606.78;;;10.53;48.58
12775;BME280;6451;42.630;23.382;2023-04-28T01:40:56;94621.69;;;10.01;49.42
12775;BME280;6451;42.630;23.382;2023-04-28T01:43:23;94607.00;;;10.02;49.51
12775;BME280;6451;42.630;23.382;2023-04-28T01:45:50;94607.78;;;10.48;48.74
12775;BME280;6451;42.630;23.382;2023-04-28T01:48:17;94588.81;;;10.36;48.52
12775;BME280;6451;42.630;23.382;2023-04-28T01:50:44;94613.44;;;10.43;48.50
12775;BME280;6451;42.630;23.382;2023-04-28T01:53:11;94616.06;;;10.52;48.32
12775;BME280;6451;42.630;23.382;2023-04-28T01:55:40;94614.34;;;10.35;48.52
12775;BME280;6451;42.630;23.382;2023-04-28T01:58:08;94605.31;;;10.55;47.95
12775;BME280;6451;42.630;23.382;2023-04-28T02:00:35;94607.44;;;10.50;48.30
12775;BME280;6451;42.630;23.382;2023-04-28T02:03:02;94608.00;;;10.80;47.89
12775;BME280;6451;42.630;23.382;2023-04-28T02:05:29;94562.50;;;10.03;48.05
12775;BME280;6451;42.630;23.382;2023-04-28T02:07:57;94616.13;;;10.31;48.78
12775;BME280;6451;42.630;23.382;2023-04-28T02:10:24;94621.81;;;10.63;47.90
12775;BME280;6451;42.630;23.382;2023-04-28T02:12:50;94614.44;;;10.26;48.87
12775;BME280;6451;42.630;23.382;2023-04-28T02:15:19;94618.88;;;10.43;48.64
12775;BME280;6451;42.630;23.382;2023-04-28T02:17:46;94600.78;;;10.47;48.65
12775;BME280;6451;42.630;23.382;2023-04-28T02:20:13;94594.66;;;10.26;48.83
12775;BME280;6451;42.630;23.382;2023-04-28T02:22:42;94593.81;;;10.01;49.37
12775;BME280;6451;42.630;23.382;2023-04-28T02:25:09;94605.19;;;10.27;48.85
12775;BME280;6451;42.630;23.382;2023-04-28T02:27:36;94623.88;;;10.08;49.49
12775;BME280;6451;42.630;23.382;2023-04-28T02:30:05;94628.03;;;10.39;49.27
12775;BME280;6451;42.630;23.382;2023-04-28T02:32:34;94630.97;;;10.00;50.13
12775;BME280;6451;42.630;23.382;2023-04-28T02:35:01;94630.63;;;10.02;49.85
12775;BME280;6451;42.630;23.382;2023-04-28T02:37:28;94636.63;;;10.53;49.03
12775;BME280;6451;42.630;23.382;2023-04-28T02:39:56;94606.38;;;10.18;49.50
12775;BME280;6451;42.630;23.382;2023-04-28T02:42:23;94613.47;;;9.98;49.88
12775;BME280;6451;42.630;23.382;2023-04-28T02:44:52;94547.19;;;9.62;50.12
12775;BME280;6451;42.630;23.382;2023-04-28T02:47:20;94615.38;;;10.10;49.66
12775;BME280;6451;42.630;23.382;2023-04-28T02:49:49;94641.81;;;10.46;49.03
12775;BME280;6451;42.630;23.382;2023-04-28T02:52:16;94643.28;;;10.80;49.13
12775;BME280;6451;42.630;23.382;2023-04-28T02:54:44;94644.66;;;10.74;48.82
12775;BME280;6451;42.630;23.382;2023-04-28T02:57:13;94649.38;;;10.40;49.35
12775;BME280;6451;42.630;23.382;2023-04-28T02:59:40;94622.50;;;10.35;49.31
12775;BME280;6451;42.630;23.382;2023-04-28T03:02:07;94646.38;;;10.21;49.72
12775;BME280;6451;42.630;23.382;2023-04-28T03:04:34;94652.78;;;10.62;49.10
12775;BME280;6451;42.630;23.382;2023-04-28T03:07:05;94632.22;;;10.36;49.41
12775;BME280;6451;42.630;23.382;2023-04-28T03:09:32;94652.59;;;10.21;49.86
12775;BME280;6451;42.630;23.382;2023-04-28T03:11:59;94621.78;;;10.26;49.64
12775;BME280;6451;42.630;23.382;2023-04-28T03:14:28;94657.66;;;10.80;49.05
12775;BME280;6451;42.630;23.382;2023-04-28T03:16:56;94655.63;;;10.65;49.14
12775;BME280;6451;42.630;23.382;2023-04-28T03:19:24;94652.09;;;10.65;49.01
12775;BME280;6451;42.630;23.382;2023-04-28T03:21:53;94644.84;;;9.99;49.32
12775;BME280;6451;42.630;23.382;2023-04-28T03:24:22;94598.19;;;9.93;49.63
12775;BME280;6451;42.630;23.382;2023-04-28T03:26:49;94663.88;;;10.44;49.32
12775;BME280;6451;42.630;23.382;2023-04-28T03:29:16;94662.28;;;10.43;49.22
12775;BME280;6451;42.630;23.382;2023-04-28T03:31:43;94657.03;;;10.26;48.82
12775;BME280;6451;42.630;23.382;2023-04-28T03:34:10;94645.09;;;10.06;48.77
12775;BME280;6451;42.630;23.382;2023-04-28T03:36:38;94668.19;;;10.12;49.23
12775;BME280;6451;42.630;23.382;2023-04-28T03:39:06;94684.75;;;10.32;48.52
12775;BME280;6451;42.630;23.382;2023-04-28T03:41:37;94681.69;;;10.33;48.87
12775;BME280;6451;42.630;23.382;2023-04-28T03:44:04;94687.66;;;10.26;48.52
12775;BME280;6451;42.630;23.382;2023-04-28T03:46:32;94633.31;;;10.23;48.31
12775;BME280;6451;42.630;23.382;2023-04-28T03:49:00;94687.69;;;10.39;49.16
12775;BME280;6451;42.630;23.382;2023-04-28T03:51:27;94683.97;;;10.43;49.22
12775;BME280;6451;42.630;23.382;2023-04-28T03:53:54;94641.75;;;9.88;48.51
12775;BME280;6451;42.630;23.382;2023-04-28T03:56:21;94686.59;;;10.89;47.79
12775;BME280;6451;42.630;23.382;2023-04-28T03:58:49;94691.03;;;10.93;47.66
12775;BME280;6451;42.630;23.382;2023-04-28T04:01:17;94695.88;;;10.63;47.65
12775;BME280;6451;42.630;23.382;2023-04-28T04:03:44;94695.94;;;10.42;47.43
12775;BME280;6451;42.630;23.382;2023-04-28T04:06:11;94690.13;;;10.77;47.59
12775;BME280;6451;42.630;23.382;2023-04-28T04:08:39;94674.28;;;10.54;47.19
12775;BME280;6451;42.630;23.382;2023-04-28T04:11:06;94705.34;;;10.45;47.98
12775;BME280;6451;42.630;23.382;2023-04-28T04:13:34;94691.66;;;10.08;47.67
12775;BME280;6451;42.630;23.382;2023-04-28T04:16:03;94720.09;;;10.80;47.07
12775;BME280;6451;42.630;23.382;2023-04-28T04:18:31;94728.22;;;10.80;48.50
12775;BME280;6451;42.630;23.382;2023-04-28T04:20:58;94695.94;;;10.30;47.66
12775;BME280;6451;42.630;23.382;2023-04-28T04:23:25;94676.41;;;10.49;47.16
12775;BME280;6451;42.630;23.382;2023-04-28T04:25:52;94738.22;;;11.01;46.64
12775;BME280;6451;42.630;23.382;2023-04-28T04:28:20;94746.13;;;10.94;46.55
12775;BME280;6451;42.630;23.382;2023-04-28T04:30:47;94738.19;;;10.89;46.44
12775;BME280;6451;42.630;23.382;2023-04-28T04:33:16;94739.78;;;11.02;46.21
12775;BME280;6451;42.630;23.382;2023-04-28T04:35:43;94745.22;;;11.51;45.77
12775;BME280;6451;42.630;23.382;2023-04-28T04:38:10;94746.50;;;11.04;45.72
12775;BME280;6451;42.630;23.382;2023-04-28T04:40:37;94735.06;;;10.99;46.01
12775;BME280;6451;42.630;23.382;2023-04-28T04:43:03;94750.00;;;11.05;45.76
12775;BME280;6451;42.630;23.382;2023-04-28T04:45:31;94758.91;;;11.66;44.69
12775;BME280;6451;42.630;23.382;2023-04-28T04:47:58;94756.75;;;10.86;46.07
12775;BME280;6451;42.630;23.382;2023-04-28T04:50:32;94754.47;;;11.50;45.23
12775;BME280;6451;42.630;23.382;2023-04-28T04:52:59;94747.06;;;11.22;45.37
12775;BME280;6451;42.630;23.382;2023-04-28T04:55:26;94757.31;;;11.41;45.31
12775;BME280;6451;42.630;23.382;2023-04-28T04:57:54;94760.13;;;11.57;45.13
12775;BME280;6451;42.630;23.382;2023-04-28T05:00:21;94763.22;;;11.43;45.14
12775;BME280;6451;42.630;23.382;2023-04-28T05:02:47;94737.59;;;11.68;45.17
12775;BME280;6451;42.630;23.382;2023-04-28T05:05:14;94754.00;;;11.96;44.81
12775;BME280;6451;42.630;23.382;2023-04-28T05:07:43;94780.78;;;11.58;44.99
12775;BME280;6451;42.630;23.382;2023-04-28T05:10:11;94759.56;;;11.63;45.05
12775;BME280;6451;42.630;23.382;2023-04-28T05:12:38;94780.78;;;12.10;44.28
12775;BME280;6451;42.630;23.382;2023-04-28T05:15:05;94769.91;;;11.09;45.22
12775;BME280;6451;42.630;23.382;2023-04-28T05:17:32;94779.28;;;11.24;45.36
12775;BME280;6451;42.630;23.382;2023-04-28T05:20:01;94766.84;;;11.23;45.89
12775;BME280;6451;42.630;23.382;2023-04-28T05:22:28;94765.34;;;11.62;45.63
12775;BME280;6451;42.630;23.382;2023-04-28T05:24:57;94783.19;;;12.12;44.85
12775;BME280;6451;42.630;23.382;2023-04-28T05:27:23;94760.72;;;11.62;45.57
12775;BME280;6451;42.630;23.382;2023-04-28T05:29:50;94770.75;;;11.99;44.88
12775;BME280;6451;42.630;23.382;2023-04-28T05:32:17;94767.91;;;11.95;45.22
12775;BME280;6451;42.630;23.382;2023-04-28T05:34:44;94773.56;;;12.02;45.45
12775;BME280;6451;42.630;23.382;2023-04-28T05:37:11;94764.72;;;12.33;45.48
12775;BME280;6451;42.630;23.382;2023-04-28T05:39:38;94739.63;;;11.84;45.44
12775;BME280;6451;42.630;23.382;2023-04-28T05:42:06;94772.59;;;11.82;45.90
12775;BME280;6451;42.630;23.382;2023-04-28T05:44:33;94758.59;;;12.08;45.81
12775;BME280;6451;42.630;23.382;2023-04-28T05:47:00;94771.44;;;12.36;44.98
12775;BME280;6451;42.630;23.382;2023-04-28T05:49:27;94745.44;;;12.38;45.30
12775;BME280;6451;42.630;23.382;2023-04-28T05:51:54;94770.81;;;12.86;44.79
12775;BME280;6451;42.630;23.382;2023-04-28T05:54:20;94762.06;;;13.24;44.55
12775;BME280;6451;42.630;23.382;2023-04-28T05:56:47;94708.34;;;11.78;45.55
12775;BME280;6451;42.630;23.382;2023-04-28T05:59:17;94786.78;;;11.51;45.21
12775;BME280;6451;42.630;23.382;2023-04-28T06:01:44;94777.53;;;12.05;45.56
12775;BME280;6451;42.630;23.382;2023-04-28T06:04:11;94776.63;;;12.01;45.37
12775;BME280;6451;42.630;23.382;2023-04-28T06:06:38;94788.28;;;12.41;45.11
12775;BME280;6451;42.630;23.382;2023-04-28T06:09:05;94793.59;;;12.10;45.08
12775;BME280;6451;42.630;23.382;2023-04-28T06:11:31;94787.78;;;11.47;45.80
12775;BME280;6451;42.630;23.382;2023-04-28T06:13:58;94772.19;;;12.08;44.92
12775;BME280;6451;42.630;23.382;2023-04-28T06:16:27;94759.19;;;12.02;44.23
12775;BME280;6451;42.630;23.382;2023-04-28T06:18:54;94773.97;;;12.16;44.45
12775;BME280;6451;42.630;23.382;2023-04-28T06:21:21;94756.88;;;12.44;44.14
12775;BME280;6451;42.630;23.382;2023-04-28T06:23:49;94788.03;;;12.18;44.66
12775;BME280;6451;42.630;23.382;2023-04-28T06:26:16;94764.25;;;12.43;44.56
12775;BME280;6451;42.630;23.382;2023-04-28T06:28:43;94770.09;;;12.58;43.81
12775;BME280;6451;42.630;23.382;2023-04-28T06:31:09;94758.22;;;12.50;43.68
12775;BME280;6451;42.630;23.382;2023-04-28T06:33:38;94783.25;;;12.28;43.87
12775;BME280;6451;42.630;23.382;2023-04-28T06:36:05;94768.28;;;13.09;43.61
12775;BME280;6451;42.630;23.382;2023-04-28T06:38:32;94770.44;;;13.31;43.02
12775;BME280;6451;42.630;23.382;2023-04-28T06:41:00;94771.66;;;13.34;42.57
12775;BME280;6451;42.630;23.382;2023-04-28T06:43:27;94762.03;;;12.93;42.86
12775;BME280;6451;42.630;23.382;2023-04-28T06:45:55;94776.00;;;12.47;43.73
12775;BME280;6451;42.630;23.382;2023-04-28T06:48:21;94776.16;;;12.67;42.76
12775;BME280;6451;42.630;23.382;2023-04-28T06:50:51;94771.97;;;12.85;41.44
12775;BME280;6451;42.630;23.382;2023-04-28T06:53:18;94756.75;;;12.84;41.77
12775;BME280;6451;42.630;23.382;2023-04-28T06:55:45;94757.31;;;12.90;42.35
12775;BME280;6451;42.630;23.382;2023-04-28T06:58:12;94766.28;;;13.06;42.16
12775;BME280;6451;42.630;23.382;2023-04-28T07:00:39;94776.47;;;13.09;41.95
12775;BME280;6451;42.630;23.382;2023-04-28T07:03:06;94776.50;;;12.65;42.16
12775;BME280;6451;42.630;23.382;2023-04-28T07:05:32;94772.81;;;12.58;42.44
12775;BME280;6451;42.630;23.382;2023-04-28T07:08:02;94785.47;;;12.38;41.95
12775;BME280;6451;42.630;23.382;2023-04-28T07:10:29;94781.75;;;12.58;42.09
12775;BME280;6451;42.630;23.382;2023-04-28T07:12:56;94779.59;;;12.79;41.74
12775;BME280;6451;42.630;23.382;2023-04-28T07:15:23;94757.81;;;12.79;41.59
12775;BME280;6451;42.630;23.382;2023-04-28T07:17:50;94763.75;;;13.29;41.85
12775;BME280;6451;42.630;23.382;2023-04-28T07:20:20;94759.31;;;13.56;41.67
12775;BME280;6451;42.630;23.382;2023-04-28T07:22:47;94738.03;;;13.61;41.04
12775;BME280;6451;42.630;23.382;2023-04-28T07:25:15;94757.44;;;13.76;41.34
12775;BME280;6451;42.630;23.382;2023-04-28T07:27:42;94760.63;;;13.97;41.28
12775;BME280;6451;42.630;23.382;2023-04-28T07:30:09;94755.34;;;13.69;41.08
12775;BME280;6451;42.630;23.382;2023-04-28T07:32:37;94763.66;;;14.11;40.95
12775;BME280;6451;42.630;23.382;2023-04-28T07:35:04;94763.88;;;14.22;40.71
12775;BME280;6451;42.630;23.382;2023-04-28T07:37:31;94764.03;;;14.29;41.07
12775;BME280;6451;42.630;23.382;2023-04-28T07:39:58;94748.94;;;14.16;40.70
12775;BME280;6451;42.630;23.382;2023-04-28T07:42:29;94758.50;;;13.71;40.88
12775;BME280;6451;42.630;23.382;2023-04-28T07:44:56;94760.53;;;13.94;40.56
12775;BME280;6451;42.630;23.382;2023-04-28T07:47:23;94775.59;;;14.81;40.12
12775;BME280;6451;42.630;23.382;2023-04-28T07:49:51;94769.88;;;13.57;41.15
12775;BME280;6451;42.630;23.382;2023-04-28T07:52:18;94765.25;;;14.12;40.54
12775;BME280;6451;42.630;23.382;2023-04-28T07:54:45;94773.34;;;14.09;39.72
12775;BME280;6451;42.630;23.382;2023-04-28T07:57:12;94773.81;;;14.11;40.38
12775;BME280;6451;42.630;23.382;2023-04-28T07:59:40;94756.25;;;14.89;39.15
12775;BME280;6451;42.630;23.382;2023-04-28T08:02:07;94756.81;;;14.79;39.74
12775;BME280;6451;42.630;23.382;2023-04-28T08:04:37;94776.00;;;14.25;39.40
12775;BME280;6451;42.630;23.382;2023-04-28T08:07:04;94739.84;;;14.47;38.90
12775;BME280;6451;42.630;23.382;2023-04-28T08:09:31;94765.91;;;14.64;38.74
12775;BME280;6451;42.630;23.382;2023-04-28T08:11:59;94725.16;;;14.97;37.97
12775;BME280;6451;42.630;23.382;2023-04-28T08:14:26;94760.22;;;14.72;38.38
12775;BME280;6451;42.630;23.382;2023-04-28T08:16:55;94766.44;;;14.92;38.59
12775;BME280;6451;42.630;23.382;2023-04-28T08:19:22;94746.19;;;15.43;37.07
12775;BME280;6451;42.630;23.382;2023-04-28T08:21:49;94742.97;;;15.37;37.46
12775;BME280;6451;42.630;23.382;2023-04-28T08:24:16;94756.16;;;16.07;37.55
12775;BME280;6451;42.630;23.382;2023-04-28T08:26:43;94762.09;;;15.60;37.72
12775;BME280;6451;42.630;23.382;2023-04-28T08:29:10;94747.59;;;15.33;38.50
12775;BME280;6451;42.630;23.382;2023-04-28T08:31:37;94751.16;;;16.13;37.13
12775;BME280;6451;42.630;23.382;2023-04-28T08:34:05;94745.34;;;15.88;36.68
12775;BME280;6451;42.630;23.382;2023-04-28T08:36:32;94748.56;;;15.44;36.98
12775;BME280;6451;42.630;23.382;2023-04-28T08:38:59;94730.34;;;16.08;36.23
12775;BME280;6451;42.630;23.382;2023-04-28T08:41:31;94746.38;;;16.06;35.96
12775;BME280;6451;42.630;23.382;2023-04-28T08:43:58;94741.97;;;15.98;36.30
12775;BME280;6451;42.630;23.382;2023-04-28T08:46:26;94738.81;;;16.26;36.19
12775;BME280;6451;42.630;23.382;2023-04-28T08:48:59;94742.59;;;15.62;36.95
12775;BME280;6451;42.630;23.382;2023-04-28T08:51:32;94738.84;;;16.30;36.25
12775;BME280;6451;42.630;23.382;2023-04-28T08:54:01;94733.50;;;15.80;36.73
12775;BME280;6451;42.630;23.382;2023-04-28T08:56:31;94672.22;;;16.19;35.64
12775;BME280;6451;42.630;23.382;2023-04-28T08:59:01;94737.22;;;15.95;35.92
12775;BME280;6451;42.630;23.382;2023-04-28T09:01:29;94713.88;;;15.75;36.08
12775;BME280;6451;42.630;23.382;2023-04-28T09:03:56;94735.81;;;16.38;35.83
12775;BME280;6451;42.630;23.382;2023-04-28T09:06:32;94736.25;;;16.74;35.32
12775;BME280;6451;42.630;23.382;2023-04-28T09:09:19;94728.50;;;16.16;35.91
12775;BME280;6451;42.630;23.382;2023-04-28T09:11:52;94714.31;;;16.40;35.37
12775;BME280;6451;42.630;23.382;2023-04-28T09:14:20;94723.34;;;16.41;35.75
12775;BME280;6451;42.630;23.382;2023-04-28T09:16:48;94687.25;;;16.02;35.62
12775;BME280;6451;42.630;23.382;2023-04-28T09:19:16;94716.75;;;16.16;35.36
12775;BME280;6451;42.630;23.382;2023-04-28T09:21:49;94717.78;;;16.04;35.42
12775;BME280;6451;42.630;23.382;2023-04-28T09:24:30;94716.22;;;16.70;35.51
12775;BME280;6451;42.630;23.382;2023-04-28T09:26:57;94704.53;;;16.73;34.74
12775;BME280;6451;42.630;23.382;2023-04-28T09:29:24;94705.06;;;16.89;34.80
12775;BME280;6451;42.630;23.382;2023-04-28T09:31:51;94710.72;;;15.73;35.57
12775;BME280;6451;42.630;23.382;2023-04-28T09:34:19;94700.63;;;16.07;35.51
12775;BME280;6451;42.630;23.382;2023-04-28T09:36:47;94674.44;;;16.43;35.23
12775;BME280;6451;42.630;23.382;2023-04-28T09:39:27;94690.84;;;16.77;35.87
12775;BME280;6451;42.630;23.382;2023-04-28T09:41:54;94692.84;;;16.80;35.47
12775;BME280;6451;42.630;23.382;2023-04-28T09:44:21;94669.91;;;16.61;35.53
12775;BME280;6451;42.630;23.382;2023-04-28T09:46:48;94682.16;;;16.00;35.90
12775;BME280;6451;42.630;23.382;2023-04-28T09:49:15;94679.50;;;16.41;35.07
12775;BME280;6451;42.630;23.382;2023-04-28T09:51:41;94681.34;;;17.08;34.54
12775;BME280;6451;42.630;23.382;2023-04-28T09:54:10;94675.06;;;17.07;34.30
12775;BME280;6451;42.630;23.382;2023-04-28T09:56:40;94681.91;;;16.83;34.40
12775;BME280;6451;42.630;23.382;2023-04-28T09:59:09;94678.78;;;16.10;35.30
12775;BME280;6451;42.630;23.382;2023-04-28T10:01:39;94675.56;;;16.05;35.13
12775;BME280;6451;42.630;23.382;2023-04-28T10:04:07;94635.41;;;16.53;35.01
12775;BME280;6451;42.630;23.382;2023-04-28T10:06:36;94657.47;;;16.67;35.42
12775;BME280;6451;42.630;23.382;2023-04-28T10:09:04;94640.19;;;17.04;34.80
12775;BME280;6451;42.630;23.382;2023-04-28T10:11:33;94651.56;;;17.03;34.23
12775;BME280;6451;42.630;23.382;2023-04-28T10:14:00;94666.31;;;16.91;34.20
12775;BME280;6451;42.630;23.382;2023-04-28T10:16:29;94660.13;;;16.98;33.58
12775;BME280;6451;42.630;23.382;2023-04-28T10:18:57;94647.22;;;16.61;33.91
12775;BME280;6451;42.630;23.382;2023-04-28T10:21:24;94634.66;;;17.52;32.58
12775;BME280;6451;42.630;23.382;2023-04-28T10:24:08;94650.41;;;17.69;33.00
12775;BME280;6451;42.630;23.382;2023-04-28T10:29:34;94646.28;;;17.97;31.69
12775;BME280;6451;42.630;23.382;2023-04-28T10:32:23;94638.09;;;18.11;31.49
12775;BME280;6451;42.630;23.382;2023-04-28T10:38:05;94644.72;;;17.34;32.66
12775;BME280;6451;42.630;23.382;2023-04-28T10:40:34;94624.84;;;17.51;33.00
12775;BME280;6451;42.630;23.382;2023-04-28T10:43:01;94621.28;;;18.34;32.66
12775;BME280;6451;42.630;23.382;2023-04-28T10:45:58;94625.22;;;18.37;32.77
12775;BME280;6451;42.630;23.382;2023-04-28T10:48:51;94622.03;;;18.24;33.12
12775;BME280;6451;42.630;23.382;2023-04-28T10:51:31;94637.97;;;17.83;32.49
12775;BME280;6451;42.630;23.382;2023-04-28T10:54:09;94620.09;;;17.41;32.91
12775;BME280;6451;42.630;23.382;2023-04-28T10:56:41;94627.53;;;17.47;33.13
12775;BME280;6451;42.630;23.382;2023-04-28T10:59:28;94632.19;;;16.81;33.23
12775;BME280;6451;42.630;23.382;2023-04-28T11:02:34;94625.09;;;17.28;33.04
12775;BME280;6451;42.630;23.382;2023-04-28T11:11:16;94598.53;;;18.44;31.61
12775;BME280;6451;42.630;23.382;2023-04-28T11:13:43;94597.78;;;17.53;31.42
12775;BME280;6451;42.630;23.382;2023-04-28T11:16:17;94597.16;;;17.74;31.82
12775;BME280;6451;42.630;23.382;2023-04-28T11:19:05;94591.31;;;17.86;31.63
12775;BME280;6451;42.630;23.382;2023-04-28T11:21:35;94568.97;;;17.91;31.35
12775;BME280;6451;42.630;23.382;2023-04-28T11:24:08;94599.97;;;17.92;31.27
12775;BME280;6451;42.630;23.382;2023-04-28T11:26:37;94609.50;;;18.30;31.06
12775;BME280;6451;42.630;23.382;2023-04-28T11:29:04;94602.41;;;18.15;31.04
12775;BME280;6451;42.630;23.382;2023-04-28T11:31:31;94596.19;;;18.43;30.48
12775;BME280;6451;42.630;23.382;2023-04-28T11:34:05;94593.53;;;18.71;30.63
12775;BME280;6451;42.630;23.382;2023-04-28T11:36:34;94526.59;;;17.82;30.78
12775;BME280;6451;42.630;23.382;2023-04-28T11:39:02;94564.00;;;18.61;30.02
12775;BME280;6451;42.630;23.382;2023-04-28T11:41:32;94566.31;;;18.13;31.60
12775;BME280;6451;42.630;23.382;2023-04-28T11:44:08;94577.25;;;18.09;31.19
12775;BME280;6451;42.630;23.382;2023-04-28T11:46:43;94566.41;;;18.73;30.85
12775;BME280;6451;42.630;23.382;2023-04-28T11:49:10;94565.19;;;19.13;29.81
12775;BME280;6451;42.630;23.382;2023-04-28T11:51:40;94562.06;;;19.15;29.45
12775;BME280;6451;42.630;23.382;2023-04-28T11:54:09;94567.97;;;18.85;30.07
12775;BME280;6451;42.630;23.382;2023-04-28T11:56:39;94548.72;;;18.78;29.46
12775;BME280;6451;42.630;23.382;2023-04-28T11:59:09;94562.47;;;18.92;29.36
12775;BME280;6451;42.630;23.382;2023-04-28T12:01:44;94534.59;;;18.76;28.57
12775;BME280;6451;42.630;23.382;2023-04-28T12:04:12;94517.72;;;18.81;27.85
12775;BME280;6451;42.630;23.382;2023-04-28T12:06:40;94520.81;;;18.94;28.04
12775;BME280;6451;42.630;23.382;2023-04-28T12:09:17;94561.31;;;18.82;28.35
12775;BME280;6451;42.630;23.382;2023-04-28T12:11:53;94553.00;;;19.14;27.74
12775;BME280;6451;42.630;23.382;2023-04-28T12:14:23;94552.16;;;19.57;27.79
12775;BME280;6451;42.630;23.382;2023-04-28T12:16:51;94547.41;;;19.71;27.62
12775;BME280;6451;42.630;23.382;2023-04-28T12:19:18;94536.94;;;18.99;27.83
12775;BME280;6451;42.630;23.382;2023-04-28T12:22:02;94526.69;;;19.13;28.22
12775;BME280;6451;42.630;23.382;2023-04-28T12:24:30;94545.97;;;18.99;28.70
12775;BME280;6451;42.630;23.382;2023-04-28T12:27:13;94539.69;;;18.77;28.66
12775;BME280;6451;42.630;23.382;2023-04-28T12:29:43;94553.03;;;18.61;28.78
12775;BME280;6451;42.630;23.382;2023-04-28T12:32:11;94546.34;;;18.44;28.87
12775;BME280;6451;42.630;23.382;2023-04-28T12:34:40;94529.88;;;18.69;27.90
12775;BME280;6451;42.630;23.382;2023-04-28T12:37:08;94528.69;;;18.77;27.99
12775;BME280;6451;42.630;23.382;2023-04-28T12:39:36;94521.25;;;18.74;28.46
12775;BME280;6451;42.630;23.382;2023-04-28T12:42:06;94513.38;;;18.94;28.13
12775;BME280;6451;42.630;23.382;2023-04-28T12:44:35;94520.88;;;20.03;27.68
12775;BME280;6451;42.630;23.382;2023-04-28T12:47:06;94501.91;;;19.24;28.38
12775;BME280;6451;42.630;23.382;2023-04-28T12:49:34;94506.53;;;19.52;28.54
12775;BME280;6451;42.630;23.382;2023-04-28T12:52:01;94511.44;;;20.00;28.18
12775;BME280;6451;42.630;23.382;2023-04-28T12:54:29;94499.34;;;19.83;28.51
12775;BME280;6451;42.630;23.382;2023-04-28T12:56:56;94512.72;;;19.81;28.41
12775;BME280;6451;42.630;23.382;2023-04-28T12:59:22;94492.06;;;19.30;29.50
12775;BME280;6451;42.630;23.382;2023-04-28T13:01:49;94501.41;;;19.61;30.11
12775;BME280;6451;42.630;23.382;2023-04-28T13:04:18;94504.31;;;20.10;29.01
12775;BME280;6451;42.630;23.382;2023-04-28T13:06:46;94495.28;;;20.06;28.55
12775;BME280;6451;42.630;23.382;2023-04-28T13:09:14;94505.59;;;19.91;28.77
12775;BME280;6451;42.630;23.382;2023-04-28T13:11:41;94474.66;;;19.62;28.69
12775;BME280;6451;42.630;23.382;2023-04-28T13:14:08;94500.75;;;20.13;28.46
12775;BME280;6451;42.630;23.382;2023-04-28T13:16:35;94485.22;;;19.74;29.04
12775;BME280;6451;42.630;23.382;2023-04-28T13:19:03;94493.78;;;20.57;28.57